sensor_id;sensor_type;location;lat;lon;timestamp;temperature;humidity
42979;DHT22;28616;44.746;19.678;2023-07-22T06:26:18;23.00;99.90
42979;DHT22;28616;44.746;19.678;2023-07-22T06:28:43;23.00;99.90
42979;DHT22;28616;44.746;19.678;2023-07-22T06:31:09;23.00;99.90
42979;DHT22;28616;44.746;19.678;2023-07-22T06:33:35;23.10;99.90
42979;DHT22;28616;44.746;19.678;2023-07-22T06:36:01;23.10;99.90
42979;DHT22;28616;44.746;19.678;2023-07-22T06:38:27;23.10;99.90
42979;DHT22;28616;44.746;19.678;2023-07-22T06:40:53;23.20;99.90
42979;DHT22;28616;44.746;19.678;2023-07-22T06:43:19;23.20;99.90
42979;DHT22;28616;44.746;19.678;2023-07-22T06:45:45;23.20;99.90
42979;DHT22;28616;44.746;19.678;2023-07-22T06:48:11;23.20;99.90
42979;DHT22;28616;44.746;19.678;2023-07-22T06:50:36;23.20;99.90
42979;DHT22;28616;44.746;19.678;2023-07-22T06:53:02;23.30;99.90
42979;DHT22;28616;44.746;19.678;2023-07-22T06:55:29;23.40;99.90
42979;DHT22;28616;44.746;19.678;2023-07-22T06:57:58;23.50;99.90
42979;DHT22;28616;44.746;19.678;2023-07-22T07:00:25;23.60;99.90
42979;DHT22;28616;44.746;19.678;2023-07-22T07:02:50;23.70;99.90
42979;DHT22;28616;44.746;19.678;2023-07-22T07:05:16;23.80;99.90
42979;DHT22;28616;44.746;19.678;2023-07-22T20:06:32;22.40;99.90
42979;DHT22;28616;44.746;19.678;2023-07-22T20:08:58;22.20;99.90
42979;DHT22;28616;44.746;19.678;2023-07-22T20:11:23;22.10;99.90
42979;DHT22;28616;44.746;19.678;2023-07-22T20:13:49;22.00;99.90
42979;DHT22;28616;44.746;19.678;2023-07-22T20:53:06;21.10;99.90
42979;DHT22;28616;44.746;19.678;2023-07-22T20:55:36;21.00;99.90
42979;DHT22;28616;44.746;19.678;2023-07-22T20:58:02;20.80;99.90
42979;DHT22;28616;44.746;19.678;2023-07-22T21:00:28;20.60;99.90
42979;DHT22;28616;44.746;19.678;2023-07-22T21:02:54;20.50;99.90
42979;DHT22;28616;44.746;19.678;2023-07-22T21:05:21;20.50;99.90
42979;DHT22;28616;44.746;19.678;2023-07-22T21:07:47;20.50;99.90
42979;DHT22;28616;44.746;19.678;2023-07-22T21:10:14;20.50;99.90
42979;DHT22;28616;44.746;19.678;2023-07-22T21:12:40;20.50;99.90
42979;DHT22;28616;44.746;19.678;2023-07-22T21:15:07;20.40;99.90
42979;DHT22;28616;44.746;19.678;2023-07-22T21:17:32;20.40;99.90
42979;DHT22;28616;44.746;19.678;2023-07-22T21:19:58;20.30;99.90
42979;DHT22;28616;44.746;19.678;2023-07-22T21:22:24;20.40;99.90
42979;DHT22;28616;44.746;19.678;2023-07-22T21:24:50;20.40;99.90
42979;DHT22;28616;44.746;19.678;2023-07-22T21:27:15;20.40;99.90
42979;DHT22;28616;44.746;19.678;2023-07-22T21:29:42;20.20;99.90
42979;DHT22;28616;44.746;19.678;2023-07-22T21:32:09;20.30;99.90
42979;DHT22;28616;44.746;19.678;2023-07-22T21:34:34;20.40;99.90
42979;DHT22;28616;44.746;19.678;2023-07-22T21:37:00;20.30;99.90
42979;DHT22;28616;44.746;19.678;2023-07-22T21:39:26;20.30;99.90
42979;DHT22;28616;44.746;19.678;2023-07-22T21:41:52;20.30;99.90
42979;DHT22;28616;44.746;19.678;2023-07-22T21:44:19;20.30;99.90
42979;DHT22;28616;44.746;19.678;2023-07-22T21:46:44;20.30;99.90
42979;DHT22;28616;44.746;19.678;2023-07-22T21:49:10;20.30;99.90
42979;DHT22;28616;44.746;19.678;2023-07-22T21:51:36;20.30;99.90
42979;DHT22;28616;44.746;19.678;2023-07-22T21:54:04;20.30;99.90
42979;DHT22;28616;44.746;19.678;2023-07-22T21:56:30;20.30;99.90
42979;DHT22;28616;44.746;19.678;2023-07-22T21:58:56;20.30;99.90
42979;DHT22;28616;44.746;19.678;2023-07-22T22:01:21;20.30;99.90
42979;DHT22;28616;44.746;19.678;2023-07-22T22:03:47;20.30;99.90
42979;DHT22;28616;44.746;19.678;2023-07-22T22:06:13;20.30;99.90
42979;DHT22;28616;44.746;19.678;2023-07-22T22:08:38;20.30;99.90
42979;DHT22;28616;44.746;19.678;2023-07-22T22:11:05;20.20;99.90
42979;DHT22;28616;44.746;19.678;2023-07-22T22:13:31;20.30;99.90
42979;DHT22;28616;44.746;19.678;2023-07-22T22:16:01;20.20;99.90
42979;DHT22;28616;44.746;19.678;2023-07-22T22:18:27;20.20;99.90
42979;DHT22;28616;44.746;19.678;2023-07-22T22:20:53;20.20;99.90
42979;DHT22;28616;44.746;19.678;2023-07-22T22:23:19;20.30;99.90
42979;DHT22;28616;44.746;19.678;2023-07-22T22:25:44;20.30;99.90
42979;DHT22;28616;44.746;19.678;2023-07-22T22:28:10;20.30;99.90
42979;DHT22;28616;44.746;19.678;2023-07-22T22:30:36;20.30;99.90
42979;DHT22;28616;44.746;19.678;2023-07-22T22:33:02;20.30;99.90
42979;DHT22;28616;44.746;19.678;2023-07-22T22:35:28;20.30;99.90
42979;DHT22;28616;44.746;19.678;2023-07-22T22:37:56;20.30;99.90
42979;DHT22;28616;44.746;19.678;2023-07-22T22:40:22;20.30;99.90
42979;DHT22;28616;44.746;19.678;2023-07-22T22:42:47;20.30;99.90
42979;DHT22;28616;44.746;19.678;2023-07-22T22:45:13;20.30;99.90
42979;DHT22;28616;44.746;19.678;2023-07-22T22:47:39;20.20;99.90
42979;DHT22;28616;44.746;19.678;2023-07-22T22:52:31;20.40;99.90
42979;DHT22;28616;44.746;19.678;2023-07-22T22:54:58;20.30;99.90
42979;DHT22;28616;44.746;19.678;2023-07-22T22:57:24;20.20;99.90
42979;DHT22;28616;44.746;19.678;2023-07-22T22:59:50;20.30;99.90
42979;DHT22;28616;44.746;19.678;2023-07-22T23:02:15;20.30;99.90
42979;DHT22;28616;44.746;19.678;2023-07-22T23:04:41;20.30;99.90
42979;DHT22;28616;44.746;19.678;2023-07-22T23:07:07;20.20;99.90
42979;DHT22;28616;44.746;19.678;2023-07-22T23:09:33;20.20;99.90
42979;DHT22;28616;44.746;19.678;2023-07-22T23:11:58;20.20;99.90
42979;DHT22;28616;44.746;19.678;2023-07-22T23:14:24;20.10;99.90
42979;DHT22;28616;44.746;19.678;2023-07-22T23:16:50;20.10;99.90
42979;DHT22;28616;44.746;19.678;2023-07-22T23:19:18;20.10;99.90
42979;DHT22;28616;44.746;19.678;2023-07-22T23:21:44;20.10;99.90
42979;DHT22;28616;44.746;19.678;2023-07-22T23:24:10;20.10;99.90
42979;DHT22;28616;44.746;19.678;2023-07-22T23:26:36;20.10;99.90
42979;DHT22;28616;44.746;19.678;2023-07-22T23:29:02;20.20;99.90
42979;DHT22;28616;44.746;19.678;2023-07-22T23:31:29;20.10;99.90
42979;DHT22;28616;44.746;19.678;2023-07-22T23:33:55;20.10;99.90
42979;DHT22;28616;44.746;19.678;2023-07-22T23:36:21;19.90;99.90
42979;DHT22;28616;44.746;19.678;2023-07-22T23:38:47;19.80;99.90
42979;DHT22;28616;44.746;19.678;2023-07-22T23:41:13;19.80;99.90
42979;DHT22;28616;44.746;19.678;2023-07-22T23:43:39;19.80;99.90
42979;DHT22;28616;44.746;19.678;2023-07-22T23:46:05;19.80;99.90
42979;DHT22;28616;44.746;19.678;2023-07-22T23:48:31;19.80;99.90
42979;DHT22;28616;44.746;19.678;2023-07-22T23:50:57;19.70;99.90
42979;DHT22;28616;44.746;19.678;2023-07-22T23:53:23;19.70;99.90
42979;DHT22;28616;44.746;19.678;2023-07-22T23:55:49;19.60;99.90
42979;DHT22;28616;44.746;19.678;2023-07-22T23:58:15;19.60;99.90
